KHON/HON METAR and TAF weather

Enter ICAO airport designator
Station Type Date Time Source
KHON METAR 2019/10/15 18:55 UTC NOAA

KHON 151855Z AUTO 31017G28KT 10SM OVC028 07/01 A3007 RMK AO2 PK WND 31033/1828 SLP191 T00670011


Station Type Date Time Source
KHON Decoded METAR 2019/10/15 18:55 UTC NOAA

HURON REGIONAL AIRPORT, SD, United States (KHON) 44-23N 098-14W 390M
Oct 15, 2019 - 02:55 PM EDT / 2019.10.15 1855 UTC
Wind: from the NW (310 degrees) at 20 MPH (17 KT) gusting to 32 MPH (28 KT):0
Visibility: 10 mile(s):0
Sky conditions: overcast
Temperature: 44.1 F (6.7 C)
Dew Point: 34.0 F (1.1 C)
Relative Humidity: 67%
Pressure (altimeter): 30.07 in. Hg (1018 hPa)
ob: KHON 151855Z AUTO 31017G28KT 10SM OVC028 07/01 A3007 RMK AO2 PK WND 31033/1828 SLP191 T00670011
cycle: 19

Station Type Date Time Source
KHON TAF 2019/10/15 18:30 UTC NOAA

TAF KHON 151725Z 1518/1618 32023G33KT P6SM BKN025 OVC035
FM152200 33020G28KT P6SM OVC019
FM160400 32010G16KT P6SM BKN021
FM160600 32007KT P6SM BKN040

Example: see airport list